<?xml version="1.0" encoding="UTF-8" standalone="no" ?>
<gpx xmlns="http://www.topografix.com/GPX/1/1" xmlns:xsi="http://www.w3.org/2001/XMLSchema-instance" xsi:schemaLocation="http://www.topografix.com/GPX/1/1 http://www.topografix.com/GPX/1/1/gpx.xsd" version="1.1" creator="VisuGPX - https://www.visugpx.com">
  <metadata>
    <name>Ternand 1</name>
  </metadata>
  <trk>
    <name><![CDATA[10719370-Ternand 1]]></name>
    <extensions>
      <line xmlns="http://www.topografix.com/GPX/gpx_style/0/2">
        <color>0000FF</color>
        <width>4</width>
      </line>
    </extensions>
    <trkseg>
      <trkpt lat="45.94935" lon="4.52157">
        <ele>360</ele>
        <time>2022-06-12T06:57:52Z</time>
      </trkpt>
      <trkpt lat="45.94948" lon="4.52144">
        <ele>359</ele>
        <time>2022-06-12T06:58:13Z</time>
      </trkpt>
      <trkpt lat="45.94946" lon="4.52163">
        <ele>359</ele>
        <time>2022-06-12T06:58:31Z</time>
      </trkpt>
      <trkpt lat="45.94935" lon="4.52194">
        <ele>359</ele>
        <time>2022-06-12T06:59:03Z</time>
      </trkpt>
      <trkpt lat="45.94928" lon="4.52225">
        <ele>358</ele>
        <time>2022-06-12T06:59:33Z</time>
      </trkpt>
      <trkpt lat="45.94936" lon="4.52235">
        <ele>355</ele>
        <time>2022-06-12T06:59:48Z</time>
      </trkpt>
      <trkpt lat="45.94979" lon="4.52183">
        <ele>353</ele>
        <time>2022-06-12T07:01:03Z</time>
      </trkpt>
      <trkpt lat="45.95003" lon="4.52162">
        <ele>353</ele>
        <time>2022-06-12T07:01:40Z</time>
      </trkpt>
      <trkpt lat="45.95024" lon="4.52131">
        <ele>351</ele>
        <time>2022-06-12T07:02:20Z</time>
      </trkpt>
      <trkpt lat="45.9504" lon="4.52115">
        <ele>349</ele>
        <time>2022-06-12T07:02:46Z</time>
      </trkpt>
      <trkpt lat="45.95042" lon="4.52092">
        <ele>353</ele>
        <time>2022-06-12T07:03:08Z</time>
      </trkpt>
      <trkpt lat="45.95051" lon="4.52091">
        <ele>351</ele>
        <time>2022-06-12T07:03:20Z</time>
      </trkpt>
      <trkpt lat="45.9506" lon="4.52086">
        <ele>350</ele>
        <time>2022-06-12T07:03:33Z</time>
      </trkpt>
      <trkpt lat="45.95074" lon="4.52068">
        <ele>349</ele>
        <time>2022-06-12T07:03:58Z</time>
      </trkpt>
      <trkpt lat="45.95092" lon="4.52037">
        <ele>351</ele>
        <time>2022-06-12T07:04:35Z</time>
      </trkpt>
      <trkpt lat="45.95144" lon="4.51977">
        <ele>350</ele>
        <time>2022-06-12T07:06:04Z</time>
      </trkpt>
      <trkpt lat="45.9519" lon="4.51929">
        <ele>347</ele>
        <time>2022-06-12T07:07:20Z</time>
      </trkpt>
      <trkpt lat="45.95206" lon="4.51897">
        <ele>348</ele>
        <time>2022-06-12T07:07:57Z</time>
      </trkpt>
      <trkpt lat="45.95244" lon="4.51856">
        <ele>345</ele>
        <time>2022-06-12T07:09:00Z</time>
      </trkpt>
      <trkpt lat="45.95259" lon="4.5182">
        <ele>350</ele>
        <time>2022-06-12T07:09:39Z</time>
      </trkpt>
      <trkpt lat="45.95274" lon="4.51801">
        <ele>352</ele>
        <time>2022-06-12T07:10:06Z</time>
      </trkpt>
      <trkpt lat="45.95284" lon="4.51778">
        <ele>355</ele>
        <time>2022-06-12T07:10:31Z</time>
      </trkpt>
      <trkpt lat="45.95285" lon="4.51765">
        <ele>358</ele>
        <time>2022-06-12T07:10:43Z</time>
      </trkpt>
      <trkpt lat="45.95275" lon="4.51768">
        <ele>361</ele>
        <time>2022-06-12T07:10:57Z</time>
      </trkpt>
      <trkpt lat="45.95267" lon="4.51776">
        <ele>361</ele>
        <time>2022-06-12T07:11:10Z</time>
      </trkpt>
      <trkpt lat="45.9525" lon="4.51787">
        <ele>362</ele>
        <time>2022-06-12T07:11:34Z</time>
      </trkpt>
      <trkpt lat="45.95251" lon="4.51774">
        <ele>366</ele>
        <time>2022-06-12T07:11:47Z</time>
      </trkpt>
      <trkpt lat="45.95267" lon="4.51726">
        <ele>373</ele>
        <time>2022-06-12T07:12:36Z</time>
      </trkpt>
      <trkpt lat="45.95279" lon="4.51704">
        <ele>374</ele>
        <time>2022-06-12T07:13:02Z</time>
      </trkpt>
      <trkpt lat="45.9527" lon="4.51706">
        <ele>376</ele>
        <time>2022-06-12T07:13:14Z</time>
      </trkpt>
      <trkpt lat="45.95209" lon="4.51746">
        <ele>379</ele>
        <time>2022-06-12T07:14:43Z</time>
      </trkpt>
      <trkpt lat="45.95321" lon="4.51462">
        <ele>400</ele>
        <time>2022-06-12T07:19:46Z</time>
      </trkpt>
      <trkpt lat="45.95324" lon="4.5145">
        <ele>401</ele>
        <time>2022-06-12T07:19:58Z</time>
      </trkpt>
      <trkpt lat="45.95355" lon="4.51398">
        <ele>400</ele>
        <time>2022-06-12T07:21:02Z</time>
      </trkpt>
      <trkpt lat="45.95359" lon="4.51385">
        <ele>400</ele>
        <time>2022-06-12T07:21:15Z</time>
      </trkpt>
      <trkpt lat="45.95371" lon="4.51304">
        <ele>404</ele>
        <time>2022-06-12T07:22:32Z</time>
      </trkpt>
      <trkpt lat="45.95378" lon="4.51279">
        <ele>405</ele>
        <time>2022-06-12T07:22:57Z</time>
      </trkpt>
      <trkpt lat="45.95395" lon="4.51245">
        <ele>408</ele>
        <time>2022-06-12T07:23:36Z</time>
      </trkpt>
      <trkpt lat="45.95445" lon="4.51183">
        <ele>415</ele>
        <time>2022-06-12T07:25:04Z</time>
      </trkpt>
      <trkpt lat="45.95458" lon="4.51147">
        <ele>420</ele>
        <time>2022-06-12T07:25:41Z</time>
      </trkpt>
      <trkpt lat="45.95473" lon="4.51131">
        <ele>423</ele>
        <time>2022-06-12T07:26:06Z</time>
      </trkpt>
      <trkpt lat="45.95478" lon="4.51119">
        <ele>425</ele>
        <time>2022-06-12T07:26:19Z</time>
      </trkpt>
      <trkpt lat="45.95491" lon="4.51101">
        <ele>429</ele>
        <time>2022-06-12T07:26:43Z</time>
      </trkpt>
      <trkpt lat="45.95509" lon="4.51069">
        <ele>434</ele>
        <time>2022-06-12T07:27:22Z</time>
      </trkpt>
      <trkpt lat="45.95532" lon="4.51011">
        <ele>438</ele>
        <time>2022-06-12T07:28:24Z</time>
      </trkpt>
      <trkpt lat="45.95538" lon="4.50986">
        <ele>441</ele>
        <time>2022-06-12T07:28:48Z</time>
      </trkpt>
      <trkpt lat="45.95541" lon="4.50959">
        <ele>443</ele>
        <time>2022-06-12T07:29:13Z</time>
      </trkpt>
      <trkpt lat="45.95561" lon="4.50915">
        <ele>449</ele>
        <time>2022-06-12T07:30:02Z</time>
      </trkpt>
      <trkpt lat="45.95569" lon="4.50906">
        <ele>452</ele>
        <time>2022-06-12T07:30:16Z</time>
      </trkpt>
      <trkpt lat="45.95592" lon="4.50865">
        <ele>461</ele>
        <time>2022-06-12T07:31:05Z</time>
      </trkpt>
      <trkpt lat="45.95601" lon="4.50841">
        <ele>466</ele>
        <time>2022-06-12T07:31:30Z</time>
      </trkpt>
      <trkpt lat="45.95613" lon="4.50821">
        <ele>469</ele>
        <time>2022-06-12T07:31:54Z</time>
      </trkpt>
      <trkpt lat="45.95628" lon="4.50788">
        <ele>475</ele>
        <time>2022-06-12T07:32:31Z</time>
      </trkpt>
      <trkpt lat="45.95624" lon="4.50762">
        <ele>478</ele>
        <time>2022-06-12T07:32:56Z</time>
      </trkpt>
      <trkpt lat="45.95616" lon="4.50738">
        <ele>480</ele>
        <time>2022-06-12T07:33:20Z</time>
      </trkpt>
      <trkpt lat="45.95615" lon="4.50724">
        <ele>481</ele>
        <time>2022-06-12T07:33:33Z</time>
      </trkpt>
      <trkpt lat="45.9562" lon="4.50685">
        <ele>485</ele>
        <time>2022-06-12T07:34:10Z</time>
      </trkpt>
      <trkpt lat="45.95608" lon="4.50511">
        <ele>508</ele>
        <time>2022-06-12T07:36:52Z</time>
      </trkpt>
      <trkpt lat="45.95616" lon="4.50458">
        <ele>512</ele>
        <time>2022-06-12T07:37:43Z</time>
      </trkpt>
      <trkpt lat="45.95616" lon="4.50417">
        <ele>516</ele>
        <time>2022-06-12T07:38:21Z</time>
      </trkpt>
      <trkpt lat="45.9561" lon="4.50391">
        <ele>516</ele>
        <time>2022-06-12T07:38:46Z</time>
      </trkpt>
      <trkpt lat="45.95598" lon="4.5037">
        <ele>519</ele>
        <time>2022-06-12T07:39:11Z</time>
      </trkpt>
      <trkpt lat="45.95579" lon="4.50321">
        <ele>523</ele>
        <time>2022-06-12T07:40:04Z</time>
      </trkpt>
      <trkpt lat="45.95539" lon="4.50261">
        <ele>526</ele>
        <time>2022-06-12T07:41:21Z</time>
      </trkpt>
      <trkpt lat="45.95535" lon="4.5025">
        <ele>527</ele>
        <time>2022-06-12T07:41:32Z</time>
      </trkpt>
      <trkpt lat="45.95521" lon="4.50233">
        <ele>531</ele>
        <time>2022-06-12T07:41:57Z</time>
      </trkpt>
      <trkpt lat="45.95505" lon="4.5022">
        <ele>537</ele>
        <time>2022-06-12T07:42:21Z</time>
      </trkpt>
      <trkpt lat="45.95493" lon="4.502">
        <ele>539</ele>
        <time>2022-06-12T07:42:46Z</time>
      </trkpt>
      <trkpt lat="45.95422" lon="4.50134">
        <ele>545</ele>
        <time>2022-06-12T07:44:38Z</time>
      </trkpt>
      <trkpt lat="45.95403" lon="4.50104">
        <ele>548</ele>
        <time>2022-06-12T07:45:16Z</time>
      </trkpt>
      <trkpt lat="45.95382" lon="4.50059">
        <ele>551</ele>
        <time>2022-06-12T07:46:06Z</time>
      </trkpt>
      <trkpt lat="45.95363" lon="4.50028">
        <ele>552</ele>
        <time>2022-06-12T07:46:45Z</time>
      </trkpt>
      <trkpt lat="45.95348" lon="4.49993">
        <ele>556</ele>
        <time>2022-06-12T07:47:23Z</time>
      </trkpt>
      <trkpt lat="45.95341" lon="4.49967">
        <ele>559</ele>
        <time>2022-06-12T07:47:49Z</time>
      </trkpt>
      <trkpt lat="45.95305" lon="4.49799">
        <ele>569</ele>
        <time>2022-06-12T07:50:32Z</time>
      </trkpt>
      <trkpt lat="45.95281" lon="4.4974">
        <ele>574</ele>
        <time>2022-06-12T07:51:35Z</time>
      </trkpt>
      <trkpt lat="45.95254" lon="4.49725">
        <ele>579</ele>
        <time>2022-06-12T07:52:14Z</time>
      </trkpt>
      <trkpt lat="45.95245" lon="4.49723">
        <ele>580</ele>
        <time>2022-06-12T07:52:26Z</time>
      </trkpt>
      <trkpt lat="45.95237" lon="4.49717">
        <ele>581</ele>
        <time>2022-06-12T07:52:38Z</time>
      </trkpt>
      <trkpt lat="45.95228" lon="4.49714">
        <ele>582</ele>
        <time>2022-06-12T07:52:50Z</time>
      </trkpt>
      <trkpt lat="45.9522" lon="4.49707">
        <ele>584</ele>
        <time>2022-06-12T07:53:03Z</time>
      </trkpt>
      <trkpt lat="45.95201" lon="4.49702">
        <ele>585</ele>
        <time>2022-06-12T07:53:29Z</time>
      </trkpt>
      <trkpt lat="45.95183" lon="4.49693">
        <ele>588</ele>
        <time>2022-06-12T07:53:54Z</time>
      </trkpt>
      <trkpt lat="45.95155" lon="4.49689">
        <ele>588</ele>
        <time>2022-06-12T07:54:32Z</time>
      </trkpt>
      <trkpt lat="45.95137" lon="4.4968">
        <ele>589</ele>
        <time>2022-06-12T07:54:57Z</time>
      </trkpt>
      <trkpt lat="45.9512" lon="4.49667">
        <ele>591</ele>
        <time>2022-06-12T07:55:23Z</time>
      </trkpt>
      <trkpt lat="45.95107" lon="4.49646">
        <ele>595</ele>
        <time>2022-06-12T07:55:49Z</time>
      </trkpt>
      <trkpt lat="45.95094" lon="4.4961">
        <ele>602</ele>
        <time>2022-06-12T07:56:27Z</time>
      </trkpt>
      <trkpt lat="45.95072" lon="4.49584">
        <ele>606</ele>
        <time>2022-06-12T07:57:05Z</time>
      </trkpt>
      <trkpt lat="45.95063" lon="4.49581">
        <ele>606</ele>
        <time>2022-06-12T07:57:17Z</time>
      </trkpt>
      <trkpt lat="45.95044" lon="4.49588">
        <ele>603</ele>
        <time>2022-06-12T07:57:43Z</time>
      </trkpt>
      <trkpt lat="45.95025" lon="4.4959">
        <ele>601</ele>
        <time>2022-06-12T07:58:08Z</time>
      </trkpt>
      <trkpt lat="45.95006" lon="4.49586">
        <ele>601</ele>
        <time>2022-06-12T07:58:34Z</time>
      </trkpt>
      <trkpt lat="45.94989" lon="4.49577">
        <ele>602</ele>
        <time>2022-06-12T07:58:58Z</time>
      </trkpt>
      <trkpt lat="45.94982" lon="4.49568">
        <ele>603</ele>
        <time>2022-06-12T07:59:11Z</time>
      </trkpt>
      <trkpt lat="45.94958" lon="4.49547">
        <ele>604</ele>
        <time>2022-06-12T07:59:48Z</time>
      </trkpt>
      <trkpt lat="45.94954" lon="4.49535">
        <ele>606</ele>
        <time>2022-06-12T08:00:01Z</time>
      </trkpt>
      <trkpt lat="45.94945" lon="4.49533">
        <ele>605</ele>
        <time>2022-06-12T08:00:13Z</time>
      </trkpt>
      <trkpt lat="45.94936" lon="4.49527">
        <ele>606</ele>
        <time>2022-06-12T08:00:26Z</time>
      </trkpt>
      <trkpt lat="45.94923" lon="4.49508">
        <ele>607</ele>
        <time>2022-06-12T08:00:51Z</time>
      </trkpt>
      <trkpt lat="45.94921" lon="4.49495">
        <ele>607</ele>
        <time>2022-06-12T08:01:03Z</time>
      </trkpt>
      <trkpt lat="45.94926" lon="4.49456">
        <ele>610</ele>
        <time>2022-06-12T08:01:40Z</time>
      </trkpt>
      <trkpt lat="45.94935" lon="4.49416">
        <ele>612</ele>
        <time>2022-06-12T08:02:19Z</time>
      </trkpt>
      <trkpt lat="45.94925" lon="4.49412">
        <ele>611</ele>
        <time>2022-06-12T08:02:33Z</time>
      </trkpt>
      <trkpt lat="45.94891" lon="4.49432">
        <ele>614</ele>
        <time>2022-06-12T08:03:22Z</time>
      </trkpt>
      <trkpt lat="45.94872" lon="4.49433">
        <ele>617</ele>
        <time>2022-06-12T08:03:47Z</time>
      </trkpt>
      <trkpt lat="45.94854" lon="4.49441">
        <ele>620</ele>
        <time>2022-06-12T08:04:12Z</time>
      </trkpt>
      <trkpt lat="45.94835" lon="4.49442">
        <ele>623</ele>
        <time>2022-06-12T08:04:38Z</time>
      </trkpt>
      <trkpt lat="45.94782" lon="4.49467">
        <ele>636</ele>
        <time>2022-06-12T08:05:52Z</time>
      </trkpt>
      <trkpt lat="45.94765" lon="4.49478">
        <ele>639</ele>
        <time>2022-06-12T08:06:17Z</time>
      </trkpt>
      <trkpt lat="45.94759" lon="4.49489">
        <ele>639</ele>
        <time>2022-06-12T08:06:30Z</time>
      </trkpt>
      <trkpt lat="45.94742" lon="4.49497">
        <ele>642</ele>
        <time>2022-06-12T08:06:54Z</time>
      </trkpt>
      <trkpt lat="45.9471" lon="4.49526">
        <ele>642</ele>
        <time>2022-06-12T08:07:44Z</time>
      </trkpt>
      <trkpt lat="45.94703" lon="4.49535">
        <ele>642</ele>
        <time>2022-06-12T08:07:57Z</time>
      </trkpt>
      <trkpt lat="45.94641" lon="4.49561">
        <ele>647</ele>
        <time>2022-06-12T08:09:23Z</time>
      </trkpt>
      <trkpt lat="45.94633" lon="4.49568">
        <ele>646</ele>
        <time>2022-06-12T08:09:35Z</time>
      </trkpt>
      <trkpt lat="45.94604" lon="4.49569">
        <ele>649</ele>
        <time>2022-06-12T08:10:14Z</time>
      </trkpt>
      <trkpt lat="45.9458" lon="4.49547">
        <ele>657</ele>
        <time>2022-06-12T08:10:52Z</time>
      </trkpt>
      <trkpt lat="45.94571" lon="4.49544">
        <ele>659</ele>
        <time>2022-06-12T08:11:04Z</time>
      </trkpt>
      <trkpt lat="45.94561" lon="4.49547">
        <ele>659</ele>
        <time>2022-06-12T08:11:18Z</time>
      </trkpt>
      <trkpt lat="45.94547" lon="4.49565">
        <ele>657</ele>
        <time>2022-06-12T08:11:43Z</time>
      </trkpt>
      <trkpt lat="45.94506" lon="4.49599">
        <ele>654</ele>
        <time>2022-06-12T08:12:46Z</time>
      </trkpt>
      <trkpt lat="45.94497" lon="4.49604">
        <ele>653</ele>
        <time>2022-06-12T08:12:59Z</time>
      </trkpt>
      <trkpt lat="45.94487" lon="4.49607">
        <ele>653</ele>
        <time>2022-06-12T08:13:13Z</time>
      </trkpt>
      <trkpt lat="45.94478" lon="4.49603">
        <ele>654</ele>
        <time>2022-06-12T08:13:25Z</time>
      </trkpt>
      <trkpt lat="45.9446" lon="4.49606">
        <ele>654</ele>
        <time>2022-06-12T08:13:50Z</time>
      </trkpt>
      <trkpt lat="45.94451" lon="4.49611">
        <ele>653</ele>
        <time>2022-06-12T08:14:02Z</time>
      </trkpt>
      <trkpt lat="45.94442" lon="4.4961">
        <ele>654</ele>
        <time>2022-06-12T08:14:15Z</time>
      </trkpt>
      <trkpt lat="45.94415" lon="4.49623">
        <ele>651</ele>
        <time>2022-06-12T08:14:53Z</time>
      </trkpt>
      <trkpt lat="45.94415" lon="4.49636">
        <ele>648</ele>
        <time>2022-06-12T08:15:05Z</time>
      </trkpt>
      <trkpt lat="45.94408" lon="4.49629">
        <ele>650</ele>
        <time>2022-06-12T08:15:16Z</time>
      </trkpt>
      <trkpt lat="45.94399" lon="4.49627">
        <ele>650</ele>
        <time>2022-06-12T08:15:28Z</time>
      </trkpt>
      <trkpt lat="45.94371" lon="4.49634">
        <ele>647</ele>
        <time>2022-06-12T08:16:06Z</time>
      </trkpt>
      <trkpt lat="45.94362" lon="4.4964">
        <ele>646</ele>
        <time>2022-06-12T08:16:19Z</time>
      </trkpt>
      <trkpt lat="45.9433" lon="4.4969">
        <ele>637</ele>
        <time>2022-06-12T08:17:22Z</time>
      </trkpt>
      <trkpt lat="45.94322" lon="4.49697">
        <ele>635</ele>
        <time>2022-06-12T08:17:35Z</time>
      </trkpt>
      <trkpt lat="45.94312" lon="4.497">
        <ele>633</ele>
        <time>2022-06-12T08:17:48Z</time>
      </trkpt>
      <trkpt lat="45.94305" lon="4.49708">
        <ele>631</ele>
        <time>2022-06-12T08:18:00Z</time>
      </trkpt>
      <trkpt lat="45.94298" lon="4.49718">
        <ele>630</ele>
        <time>2022-06-12T08:18:14Z</time>
      </trkpt>
      <trkpt lat="45.94297" lon="4.49732">
        <ele>628</ele>
        <time>2022-06-12T08:18:27Z</time>
      </trkpt>
      <trkpt lat="45.94273" lon="4.49751">
        <ele>624</ele>
        <time>2022-06-12T08:19:03Z</time>
      </trkpt>
      <trkpt lat="45.94268" lon="4.49763">
        <ele>623</ele>
        <time>2022-06-12T08:19:16Z</time>
      </trkpt>
      <trkpt lat="45.94262" lon="4.4979">
        <ele>622</ele>
        <time>2022-06-12T08:19:42Z</time>
      </trkpt>
      <trkpt lat="45.94261" lon="4.49817">
        <ele>622</ele>
        <time>2022-06-12T08:20:08Z</time>
      </trkpt>
      <trkpt lat="45.94256" lon="4.49842">
        <ele>621</ele>
        <time>2022-06-12T08:20:32Z</time>
      </trkpt>
      <trkpt lat="45.94246" lon="4.49866">
        <ele>621</ele>
        <time>2022-06-12T08:20:58Z</time>
      </trkpt>
      <trkpt lat="45.9424" lon="4.49892">
        <ele>619</ele>
        <time>2022-06-12T08:21:23Z</time>
      </trkpt>
      <trkpt lat="45.94229" lon="4.49914">
        <ele>618</ele>
        <time>2022-06-12T08:21:48Z</time>
      </trkpt>
      <trkpt lat="45.94227" lon="4.49927">
        <ele>617</ele>
        <time>2022-06-12T08:22:01Z</time>
      </trkpt>
      <trkpt lat="45.9423" lon="4.49954">
        <ele>618</ele>
        <time>2022-06-12T08:22:26Z</time>
      </trkpt>
      <trkpt lat="45.9422" lon="4.49992">
        <ele>619</ele>
        <time>2022-06-12T08:23:04Z</time>
      </trkpt>
      <trkpt lat="45.94214" lon="4.50073">
        <ele>616</ele>
        <time>2022-06-12T08:24:19Z</time>
      </trkpt>
      <trkpt lat="45.94206" lon="4.50097">
        <ele>616</ele>
        <time>2022-06-12T08:24:44Z</time>
      </trkpt>
      <trkpt lat="45.94205" lon="4.50137">
        <ele>615</ele>
        <time>2022-06-12T08:25:21Z</time>
      </trkpt>
      <trkpt lat="45.94199" lon="4.50163">
        <ele>615</ele>
        <time>2022-06-12T08:25:47Z</time>
      </trkpt>
      <trkpt lat="45.94198" lon="4.50219">
        <ele>613</ele>
        <time>2022-06-12T08:26:38Z</time>
      </trkpt>
      <trkpt lat="45.942" lon="4.50247">
        <ele>612</ele>
        <time>2022-06-12T08:27:05Z</time>
      </trkpt>
      <trkpt lat="45.94198" lon="4.50259">
        <ele>612</ele>
        <time>2022-06-12T08:27:16Z</time>
      </trkpt>
      <trkpt lat="45.94189" lon="4.50281">
        <ele>613</ele>
        <time>2022-06-12T08:27:40Z</time>
      </trkpt>
      <trkpt lat="45.94183" lon="4.50334">
        <ele>612</ele>
        <time>2022-06-12T08:28:30Z</time>
      </trkpt>
      <trkpt lat="45.94177" lon="4.50346">
        <ele>612</ele>
        <time>2022-06-12T08:28:43Z</time>
      </trkpt>
      <trkpt lat="45.94166" lon="4.50382">
        <ele>612</ele>
        <time>2022-06-12T08:29:20Z</time>
      </trkpt>
      <trkpt lat="45.94158" lon="4.50392">
        <ele>612</ele>
        <time>2022-06-12T08:29:34Z</time>
      </trkpt>
      <trkpt lat="45.94132" lon="4.5048">
        <ele>604</ele>
        <time>2022-06-12T08:31:03Z</time>
      </trkpt>
      <trkpt lat="45.94122" lon="4.50503">
        <ele>602</ele>
        <time>2022-06-12T08:31:28Z</time>
      </trkpt>
      <trkpt lat="45.94114" lon="4.50512">
        <ele>602</ele>
        <time>2022-06-12T08:31:41Z</time>
      </trkpt>
      <trkpt lat="45.94103" lon="4.50533">
        <ele>601</ele>
        <time>2022-06-12T08:32:06Z</time>
      </trkpt>
      <trkpt lat="45.9409" lon="4.50571">
        <ele>600</ele>
        <time>2022-06-12T08:32:45Z</time>
      </trkpt>
      <trkpt lat="45.94062" lon="4.50623">
        <ele>594</ele>
        <time>2022-06-12T08:33:46Z</time>
      </trkpt>
      <trkpt lat="45.94059" lon="4.5065">
        <ele>592</ele>
        <time>2022-06-12T08:34:11Z</time>
      </trkpt>
      <trkpt lat="45.94054" lon="4.50662">
        <ele>591</ele>
        <time>2022-06-12T08:34:24Z</time>
      </trkpt>
      <trkpt lat="45.94045" lon="4.50714">
        <ele>583</ele>
        <time>2022-06-12T08:35:14Z</time>
      </trkpt>
      <trkpt lat="45.94033" lon="4.50751">
        <ele>579</ele>
        <time>2022-06-12T08:35:52Z</time>
      </trkpt>
      <trkpt lat="45.94025" lon="4.50816">
        <ele>569</ele>
        <time>2022-06-12T08:36:53Z</time>
      </trkpt>
      <trkpt lat="45.94011" lon="4.50865">
        <ele>565</ele>
        <time>2022-06-12T08:37:42Z</time>
      </trkpt>
      <trkpt lat="45.94009" lon="4.50891">
        <ele>561</ele>
        <time>2022-06-12T08:38:07Z</time>
      </trkpt>
      <trkpt lat="45.94" lon="4.50915">
        <ele>560</ele>
        <time>2022-06-12T08:38:32Z</time>
      </trkpt>
      <trkpt lat="45.93999" lon="4.50942">
        <ele>555</ele>
        <time>2022-06-12T08:38:57Z</time>
      </trkpt>
      <trkpt lat="45.93987" lon="4.51008">
        <ele>543</ele>
        <time>2022-06-12T08:40:00Z</time>
      </trkpt>
      <trkpt lat="45.93977" lon="4.51031">
        <ele>540</ele>
        <time>2022-06-12T08:40:26Z</time>
      </trkpt>
      <trkpt lat="45.93974" lon="4.51058">
        <ele>536</ele>
        <time>2022-06-12T08:40:51Z</time>
      </trkpt>
      <trkpt lat="45.93974" lon="4.51086">
        <ele>532</ele>
        <time>2022-06-12T08:41:17Z</time>
      </trkpt>
      <trkpt lat="45.93971" lon="4.51099">
        <ele>531</ele>
        <time>2022-06-12T08:41:30Z</time>
      </trkpt>
      <trkpt lat="45.93965" lon="4.51108">
        <ele>530</ele>
        <time>2022-06-12T08:41:41Z</time>
      </trkpt>
      <trkpt lat="45.93956" lon="4.51112">
        <ele>529</ele>
        <time>2022-06-12T08:41:54Z</time>
      </trkpt>
      <trkpt lat="45.93971" lon="4.51106">
        <ele>530</ele>
        <time>2022-06-12T08:42:15Z</time>
      </trkpt>
      <trkpt lat="45.93943" lon="4.51121">
        <ele>528</ele>
        <time>2022-06-12T08:42:55Z</time>
      </trkpt>
      <trkpt lat="45.93925" lon="4.51125">
        <ele>527</ele>
        <time>2022-06-12T08:43:19Z</time>
      </trkpt>
      <trkpt lat="45.93878" lon="4.51144">
        <ele>519</ele>
        <time>2022-06-12T08:44:24Z</time>
      </trkpt>
      <trkpt lat="45.93851" lon="4.51159">
        <ele>515</ele>
        <time>2022-06-12T08:45:03Z</time>
      </trkpt>
      <trkpt lat="45.93786" lon="4.51237">
        <ele>509</ele>
        <time>2022-06-12T08:46:56Z</time>
      </trkpt>
      <trkpt lat="45.93773" lon="4.51257">
        <ele>508</ele>
        <time>2022-06-12T08:47:21Z</time>
      </trkpt>
      <trkpt lat="45.93748" lon="4.51313">
        <ele>505</ele>
        <time>2022-06-12T08:48:23Z</time>
      </trkpt>
      <trkpt lat="45.9373" lon="4.51376">
        <ele>502</ele>
        <time>2022-06-12T08:49:26Z</time>
      </trkpt>
      <trkpt lat="45.93729" lon="4.51389">
        <ele>502</ele>
        <time>2022-06-12T08:49:38Z</time>
      </trkpt>
      <trkpt lat="45.9371" lon="4.51452">
        <ele>497</ele>
        <time>2022-06-12T08:50:42Z</time>
      </trkpt>
      <trkpt lat="45.93701" lon="4.51505">
        <ele>493</ele>
        <time>2022-06-12T08:51:32Z</time>
      </trkpt>
      <trkpt lat="45.93702" lon="4.51597">
        <ele>482</ele>
        <time>2022-06-12T08:52:58Z</time>
      </trkpt>
      <trkpt lat="45.93678" lon="4.51684">
        <ele>478</ele>
        <time>2022-06-12T08:54:25Z</time>
      </trkpt>
      <trkpt lat="45.93672" lon="4.51696">
        <ele>478</ele>
        <time>2022-06-12T08:54:38Z</time>
      </trkpt>
      <trkpt lat="45.93647" lon="4.51855">
        <ele>473</ele>
        <time>2022-06-12T08:57:10Z</time>
      </trkpt>
      <trkpt lat="45.93636" lon="4.51892">
        <ele>471</ele>
        <time>2022-06-12T08:57:47Z</time>
      </trkpt>
      <trkpt lat="45.93631" lon="4.51919">
        <ele>470</ele>
        <time>2022-06-12T08:58:13Z</time>
      </trkpt>
      <trkpt lat="45.93621" lon="4.51943">
        <ele>468</ele>
        <time>2022-06-12T08:58:39Z</time>
      </trkpt>
      <trkpt lat="45.93612" lon="4.51981">
        <ele>465</ele>
        <time>2022-06-12T08:59:16Z</time>
      </trkpt>
      <trkpt lat="45.93606" lon="4.51991">
        <ele>465</ele>
        <time>2022-06-12T08:59:28Z</time>
      </trkpt>
      <trkpt lat="45.93597" lon="4.51996">
        <ele>465</ele>
        <time>2022-06-12T08:59:41Z</time>
      </trkpt>
      <trkpt lat="45.93589" lon="4.51988">
        <ele>466</ele>
        <time>2022-06-12T08:59:54Z</time>
      </trkpt>
      <trkpt lat="45.9358" lon="4.51994">
        <ele>465</ele>
        <time>2022-06-12T09:00:08Z</time>
      </trkpt>
      <trkpt lat="45.9359" lon="4.5199">
        <ele>465</ele>
        <time>2022-06-12T09:00:21Z</time>
      </trkpt>
      <trkpt lat="45.93597" lon="4.52015">
        <ele>463</ele>
        <time>2022-06-12T09:00:46Z</time>
      </trkpt>
      <trkpt lat="45.93612" lon="4.52048">
        <ele>459</ele>
        <time>2022-06-12T09:01:23Z</time>
      </trkpt>
      <trkpt lat="45.93651" lon="4.52107">
        <ele>450</ele>
        <time>2022-06-12T09:02:39Z</time>
      </trkpt>
      <trkpt lat="45.93652" lon="4.5212">
        <ele>449</ele>
        <time>2022-06-12T09:02:51Z</time>
      </trkpt>
      <trkpt lat="45.93649" lon="4.52133">
        <ele>448</ele>
        <time>2022-06-12T09:03:03Z</time>
      </trkpt>
      <trkpt lat="45.93653" lon="4.52145">
        <ele>447</ele>
        <time>2022-06-12T09:03:16Z</time>
      </trkpt>
      <trkpt lat="45.93645" lon="4.52196">
        <ele>442</ele>
        <time>2022-06-12T09:04:04Z</time>
      </trkpt>
      <trkpt lat="45.93654" lon="4.52261">
        <ele>436</ele>
        <time>2022-06-12T09:05:06Z</time>
      </trkpt>
      <trkpt lat="45.93658" lon="4.52274">
        <ele>434</ele>
        <time>2022-06-12T09:05:19Z</time>
      </trkpt>
      <trkpt lat="45.93659" lon="4.52355">
        <ele>428</ele>
        <time>2022-06-12T09:06:34Z</time>
      </trkpt>
      <trkpt lat="45.93662" lon="4.52381">
        <ele>427</ele>
        <time>2022-06-12T09:06:59Z</time>
      </trkpt>
      <trkpt lat="45.93658" lon="4.5246">
        <ele>424</ele>
        <time>2022-06-12T09:08:12Z</time>
      </trkpt>
      <trkpt lat="45.9366" lon="4.52487">
        <ele>423</ele>
        <time>2022-06-12T09:08:37Z</time>
      </trkpt>
      <trkpt lat="45.93657" lon="4.52514">
        <ele>423</ele>
        <time>2022-06-12T09:09:03Z</time>
      </trkpt>
      <trkpt lat="45.93638" lon="4.52577">
        <ele>422</ele>
        <time>2022-06-12T09:10:06Z</time>
      </trkpt>
      <trkpt lat="45.93626" lon="4.52627">
        <ele>421</ele>
        <time>2022-06-12T09:10:56Z</time>
      </trkpt>
      <trkpt lat="45.93586" lon="4.5275">
        <ele>420</ele>
        <time>2022-06-12T09:13:02Z</time>
      </trkpt>
      <trkpt lat="45.93566" lon="4.5287">
        <ele>414</ele>
        <time>2022-06-12T09:14:56Z</time>
      </trkpt>
      <trkpt lat="45.9356" lon="4.52922">
        <ele>412</ele>
        <time>2022-06-12T09:15:45Z</time>
      </trkpt>
      <trkpt lat="45.93564" lon="4.52934">
        <ele>412</ele>
        <time>2022-06-12T09:15:57Z</time>
      </trkpt>
      <trkpt lat="45.93557" lon="4.52943">
        <ele>412</ele>
        <time>2022-06-12T09:16:10Z</time>
      </trkpt>
      <trkpt lat="45.93548" lon="4.52996">
        <ele>412</ele>
        <time>2022-06-12T09:17:00Z</time>
      </trkpt>
      <trkpt lat="45.9353" lon="4.53046">
        <ele>411</ele>
        <time>2022-06-12T09:17:53Z</time>
      </trkpt>
      <trkpt lat="45.93496" lon="4.53158">
        <ele>415</ele>
        <time>2022-06-12T09:19:46Z</time>
      </trkpt>
      <trkpt lat="45.93487" lon="4.53197">
        <ele>415</ele>
        <time>2022-06-12T09:20:24Z</time>
      </trkpt>
      <trkpt lat="45.93468" lon="4.53243">
        <ele>415</ele>
        <time>2022-06-12T09:21:14Z</time>
      </trkpt>
      <trkpt lat="45.93457" lon="4.5328">
        <ele>415</ele>
        <time>2022-06-12T09:21:51Z</time>
      </trkpt>
      <trkpt lat="45.93446" lon="4.53303">
        <ele>415</ele>
        <time>2022-06-12T09:22:17Z</time>
      </trkpt>
      <trkpt lat="45.93441" lon="4.53329">
        <ele>416</ele>
        <time>2022-06-12T09:22:42Z</time>
      </trkpt>
      <trkpt lat="45.93422" lon="4.53378">
        <ele>416</ele>
        <time>2022-06-12T09:23:34Z</time>
      </trkpt>
      <trkpt lat="45.93413" lon="4.53416">
        <ele>416</ele>
        <time>2022-06-12T09:24:12Z</time>
      </trkpt>
      <trkpt lat="45.93401" lon="4.53437">
        <ele>414</ele>
        <time>2022-06-12T09:24:37Z</time>
      </trkpt>
      <trkpt lat="45.9338" lon="4.53485">
        <ele>412</ele>
        <time>2022-06-12T09:25:29Z</time>
      </trkpt>
      <trkpt lat="45.93377" lon="4.53498">
        <ele>412</ele>
        <time>2022-06-12T09:25:42Z</time>
      </trkpt>
      <trkpt lat="45.93365" lon="4.53519">
        <ele>410</ele>
        <time>2022-06-12T09:26:07Z</time>
      </trkpt>
      <trkpt lat="45.93357" lon="4.53545">
        <ele>409</ele>
        <time>2022-06-12T09:26:34Z</time>
      </trkpt>
      <trkpt lat="45.93346" lon="4.53567">
        <ele>408</ele>
        <time>2022-06-12T09:26:59Z</time>
      </trkpt>
      <trkpt lat="45.93333" lon="4.53586">
        <ele>407</ele>
        <time>2022-06-12T09:27:24Z</time>
      </trkpt>
      <trkpt lat="45.933" lon="4.53654">
        <ele>403</ele>
        <time>2022-06-12T09:28:41Z</time>
      </trkpt>
      <trkpt lat="45.93307" lon="4.53663">
        <ele>403</ele>
        <time>2022-06-12T09:28:53Z</time>
      </trkpt>
      <trkpt lat="45.93317" lon="4.53663">
        <ele>403</ele>
        <time>2022-06-12T09:29:06Z</time>
      </trkpt>
      <trkpt lat="45.93335" lon="4.53668">
        <ele>403</ele>
        <time>2022-06-12T09:29:31Z</time>
      </trkpt>
      <trkpt lat="45.93353" lon="4.5366">
        <ele>403</ele>
        <time>2022-06-12T09:29:56Z</time>
      </trkpt>
      <trkpt lat="45.93376" lon="4.53636">
        <ele>404</ele>
        <time>2022-06-12T09:30:34Z</time>
      </trkpt>
      <trkpt lat="45.93385" lon="4.53631">
        <ele>404</ele>
        <time>2022-06-12T09:30:47Z</time>
      </trkpt>
      <trkpt lat="45.93393" lon="4.53634">
        <ele>404</ele>
        <time>2022-06-12T09:30:58Z</time>
      </trkpt>
      <trkpt lat="45.93401" lon="4.53642">
        <ele>403</ele>
        <time>2022-06-12T09:31:11Z</time>
      </trkpt>
      <trkpt lat="45.9341" lon="4.53642">
        <ele>402</ele>
        <time>2022-06-12T09:31:23Z</time>
      </trkpt>
      <trkpt lat="45.93428" lon="4.53651">
        <ele>400</ele>
        <time>2022-06-12T09:31:48Z</time>
      </trkpt>
      <trkpt lat="45.93465" lon="4.53661">
        <ele>396</ele>
        <time>2022-06-12T09:32:39Z</time>
      </trkpt>
      <trkpt lat="45.93492" lon="4.53655">
        <ele>395</ele>
        <time>2022-06-12T09:33:15Z</time>
      </trkpt>
      <trkpt lat="45.93511" lon="4.53657">
        <ele>393</ele>
        <time>2022-06-12T09:33:40Z</time>
      </trkpt>
      <trkpt lat="45.93539" lon="4.53653">
        <ele>391</ele>
        <time>2022-06-12T09:34:18Z</time>
      </trkpt>
      <trkpt lat="45.93576" lon="4.53654">
        <ele>387</ele>
        <time>2022-06-12T09:35:07Z</time>
      </trkpt>
      <trkpt lat="45.93595" lon="4.53651">
        <ele>385</ele>
        <time>2022-06-12T09:35:33Z</time>
      </trkpt>
      <trkpt lat="45.93605" lon="4.53654">
        <ele>383</ele>
        <time>2022-06-12T09:35:47Z</time>
      </trkpt>
      <trkpt lat="45.93613" lon="4.53648">
        <ele>382</ele>
        <time>2022-06-12T09:35:59Z</time>
      </trkpt>
      <trkpt lat="45.93623" lon="4.53648">
        <ele>381</ele>
        <time>2022-06-12T09:36:12Z</time>
      </trkpt>
      <trkpt lat="45.93632" lon="4.53644">
        <ele>380</ele>
        <time>2022-06-12T09:36:24Z</time>
      </trkpt>
      <trkpt lat="45.93647" lon="4.53628">
        <ele>379</ele>
        <time>2022-06-12T09:36:49Z</time>
      </trkpt>
      <trkpt lat="45.93663" lon="4.53617">
        <ele>377</ele>
        <time>2022-06-12T09:37:13Z</time>
      </trkpt>
      <trkpt lat="45.93679" lon="4.536">
        <ele>375</ele>
        <time>2022-06-12T09:37:40Z</time>
      </trkpt>
      <trkpt lat="45.93699" lon="4.53571">
        <ele>372</ele>
        <time>2022-06-12T09:38:18Z</time>
      </trkpt>
      <trkpt lat="45.9372" lon="4.5351">
        <ele>370</ele>
        <time>2022-06-12T09:39:21Z</time>
      </trkpt>
      <trkpt lat="45.93725" lon="4.53471">
        <ele>368</ele>
        <time>2022-06-12T09:39:58Z</time>
      </trkpt>
      <trkpt lat="45.93722" lon="4.53431">
        <ele>367</ele>
        <time>2022-06-12T09:40:35Z</time>
      </trkpt>
      <trkpt lat="45.93716" lon="4.53421">
        <ele>368</ele>
        <time>2022-06-12T09:40:47Z</time>
      </trkpt>
      <trkpt lat="45.93721" lon="4.53382">
        <ele>366</ele>
        <time>2022-06-12T09:41:24Z</time>
      </trkpt>
      <trkpt lat="45.93716" lon="4.5337">
        <ele>367</ele>
        <time>2022-06-12T09:41:37Z</time>
      </trkpt>
      <trkpt lat="45.9371" lon="4.53331">
        <ele>369</ele>
        <time>2022-06-12T09:42:14Z</time>
      </trkpt>
      <trkpt lat="45.93722" lon="4.5328">
        <ele>367</ele>
        <time>2022-06-12T09:43:04Z</time>
      </trkpt>
      <trkpt lat="45.93727" lon="4.53269">
        <ele>366</ele>
        <time>2022-06-12T09:43:16Z</time>
      </trkpt>
      <trkpt lat="45.93729" lon="4.53283">
        <ele>364</ele>
        <time>2022-06-12T09:43:29Z</time>
      </trkpt>
      <trkpt lat="45.93724" lon="4.53294">
        <ele>366</ele>
        <time>2022-06-12T09:43:42Z</time>
      </trkpt>
      <trkpt lat="45.93724" lon="4.53321">
        <ele>364</ele>
        <time>2022-06-12T09:44:07Z</time>
      </trkpt>
      <trkpt lat="45.93727" lon="4.53333">
        <ele>363</ele>
        <time>2022-06-12T09:44:18Z</time>
      </trkpt>
      <trkpt lat="45.93735" lon="4.53326">
        <ele>360</ele>
        <time>2022-06-12T09:44:31Z</time>
      </trkpt>
      <trkpt lat="45.93741" lon="4.53315">
        <ele>359</ele>
        <time>2022-06-12T09:44:44Z</time>
      </trkpt>
      <trkpt lat="45.93757" lon="4.533">
        <ele>354</ele>
        <time>2022-06-12T09:45:09Z</time>
      </trkpt>
      <trkpt lat="45.93763" lon="4.53291">
        <ele>353</ele>
        <time>2022-06-12T09:45:21Z</time>
      </trkpt>
      <trkpt lat="45.9378" lon="4.53257">
        <ele>349</ele>
        <time>2022-06-12T09:46:00Z</time>
      </trkpt>
      <trkpt lat="45.93789" lon="4.53232">
        <ele>347</ele>
        <time>2022-06-12T09:46:26Z</time>
      </trkpt>
      <trkpt lat="45.93792" lon="4.5322">
        <ele>346</ele>
        <time>2022-06-12T09:46:38Z</time>
      </trkpt>
      <trkpt lat="45.93795" lon="4.53155">
        <ele>347</ele>
        <time>2022-06-12T09:47:38Z</time>
      </trkpt>
      <trkpt lat="45.93811" lon="4.53076">
        <ele>346</ele>
        <time>2022-06-12T09:48:55Z</time>
      </trkpt>
      <trkpt lat="45.93816" lon="4.53065">
        <ele>346</ele>
        <time>2022-06-12T09:49:07Z</time>
      </trkpt>
      <trkpt lat="45.9383" lon="4.53044">
        <ele>346</ele>
        <time>2022-06-12T09:49:34Z</time>
      </trkpt>
      <trkpt lat="45.93857" lon="4.53033">
        <ele>343</ele>
        <time>2022-06-12T09:50:11Z</time>
      </trkpt>
      <trkpt lat="45.93866" lon="4.53032">
        <ele>342</ele>
        <time>2022-06-12T09:50:23Z</time>
      </trkpt>
      <trkpt lat="45.93871" lon="4.53022">
        <ele>343</ele>
        <time>2022-06-12T09:50:35Z</time>
      </trkpt>
      <trkpt lat="45.93882" lon="4.53021">
        <ele>341</ele>
        <time>2022-06-12T09:50:49Z</time>
      </trkpt>
      <trkpt lat="45.9391" lon="4.53007">
        <ele>338</ele>
        <time>2022-06-12T09:51:29Z</time>
      </trkpt>
      <trkpt lat="45.93918" lon="4.53001">
        <ele>338</ele>
        <time>2022-06-12T09:51:41Z</time>
      </trkpt>
      <trkpt lat="45.93939" lon="4.52975">
        <ele>337</ele>
        <time>2022-06-12T09:52:18Z</time>
      </trkpt>
      <trkpt lat="45.93982" lon="4.52944">
        <ele>332</ele>
        <time>2022-06-12T09:53:22Z</time>
      </trkpt>
      <trkpt lat="45.94006" lon="4.52919">
        <ele>330</ele>
        <time>2022-06-12T09:54:02Z</time>
      </trkpt>
      <trkpt lat="45.94017" lon="4.52897">
        <ele>329</ele>
        <time>2022-06-12T09:54:27Z</time>
      </trkpt>
      <trkpt lat="45.94025" lon="4.52871">
        <ele>328</ele>
        <time>2022-06-12T09:54:53Z</time>
      </trkpt>
      <trkpt lat="45.94036" lon="4.52851">
        <ele>326</ele>
        <time>2022-06-12T09:55:17Z</time>
      </trkpt>
      <trkpt lat="45.94055" lon="4.52843">
        <ele>323</ele>
        <time>2022-06-12T09:55:43Z</time>
      </trkpt>
      <trkpt lat="45.94073" lon="4.52845">
        <ele>319</ele>
        <time>2022-06-12T09:56:07Z</time>
      </trkpt>
      <trkpt lat="45.94092" lon="4.52852">
        <ele>316</ele>
        <time>2022-06-12T09:56:34Z</time>
      </trkpt>
      <trkpt lat="45.94115" lon="4.52794">
        <ele>311</ele>
        <time>2022-06-12T09:57:36Z</time>
      </trkpt>
      <trkpt lat="45.94122" lon="4.52784">
        <ele>310</ele>
        <time>2022-06-12T09:57:49Z</time>
      </trkpt>
      <trkpt lat="45.94131" lon="4.52778">
        <ele>309</ele>
        <time>2022-06-12T09:58:02Z</time>
      </trkpt>
      <trkpt lat="45.94156" lon="4.52795">
        <ele>306</ele>
        <time>2022-06-12T09:58:39Z</time>
      </trkpt>
      <trkpt lat="45.9416" lon="4.52783">
        <ele>305</ele>
        <time>2022-06-12T09:58:51Z</time>
      </trkpt>
      <trkpt lat="45.94163" lon="4.52742">
        <ele>305</ele>
        <time>2022-06-12T09:59:30Z</time>
      </trkpt>
      <trkpt lat="45.94177" lon="4.52722">
        <ele>305</ele>
        <time>2022-06-12T09:59:56Z</time>
      </trkpt>
      <trkpt lat="45.94212" lon="4.52697">
        <ele>304</ele>
        <time>2022-06-12T10:00:48Z</time>
      </trkpt>
      <trkpt lat="45.94227" lon="4.52681">
        <ele>303</ele>
        <time>2022-06-12T10:01:13Z</time>
      </trkpt>
      <trkpt lat="45.94233" lon="4.5267">
        <ele>303</ele>
        <time>2022-06-12T10:01:26Z</time>
      </trkpt>
      <trkpt lat="45.94256" lon="4.52644">
        <ele>303</ele>
        <time>2022-06-12T10:02:05Z</time>
      </trkpt>
      <trkpt lat="45.94264" lon="4.52638">
        <ele>303</ele>
        <time>2022-06-12T10:02:17Z</time>
      </trkpt>
      <trkpt lat="45.94273" lon="4.52639">
        <ele>304</ele>
        <time>2022-06-12T10:02:29Z</time>
      </trkpt>
      <trkpt lat="45.94281" lon="4.52645">
        <ele>303</ele>
        <time>2022-06-12T10:02:41Z</time>
      </trkpt>
      <trkpt lat="45.94283" lon="4.52658">
        <ele>303</ele>
        <time>2022-06-12T10:02:53Z</time>
      </trkpt>
      <trkpt lat="45.94282" lon="4.52685">
        <ele>305</ele>
        <time>2022-06-12T10:03:19Z</time>
      </trkpt>
      <trkpt lat="45.94274" lon="4.52709">
        <ele>305</ele>
        <time>2022-06-12T10:03:43Z</time>
      </trkpt>
      <trkpt lat="45.94268" lon="4.52777">
        <ele>307</ele>
        <time>2022-06-12T10:04:47Z</time>
      </trkpt>
      <trkpt lat="45.94269" lon="4.5279">
        <ele>308</ele>
        <time>2022-06-12T10:04:59Z</time>
      </trkpt>
      <trkpt lat="45.94276" lon="4.52816">
        <ele>312</ele>
        <time>2022-06-12T10:05:25Z</time>
      </trkpt>
      <trkpt lat="45.94277" lon="4.52871">
        <ele>313</ele>
        <time>2022-06-12T10:06:16Z</time>
      </trkpt>
      <trkpt lat="45.94289" lon="4.52907">
        <ele>318</ele>
        <time>2022-06-12T10:06:53Z</time>
      </trkpt>
      <trkpt lat="45.94286" lon="4.52854">
        <ele>317</ele>
        <time>2022-06-12T10:07:42Z</time>
      </trkpt>
      <trkpt lat="45.94288" lon="4.52841">
        <ele>318</ele>
        <time>2022-06-12T10:07:55Z</time>
      </trkpt>
      <trkpt lat="45.94297" lon="4.52852">
        <ele>321</ele>
        <time>2022-06-12T10:08:10Z</time>
      </trkpt>
      <trkpt lat="45.94309" lon="4.52899">
        <ele>327</ele>
        <time>2022-06-12T10:08:57Z</time>
      </trkpt>
      <trkpt lat="45.94315" lon="4.52913">
        <ele>329</ele>
        <time>2022-06-12T10:09:12Z</time>
      </trkpt>
      <trkpt lat="45.94335" lon="4.52949">
        <ele>334</ele>
        <time>2022-06-12T10:09:55Z</time>
      </trkpt>
      <trkpt lat="45.94341" lon="4.52951">
        <ele>335</ele>
        <time>2022-06-12T10:10:03Z</time>
      </trkpt>
      <trkpt lat="45.94347" lon="4.52958">
        <ele>336</ele>
        <time>2022-06-12T10:10:13Z</time>
      </trkpt>
      <trkpt lat="45.94358" lon="4.52942">
        <ele>340</ele>
        <time>2022-06-12T10:10:34Z</time>
      </trkpt>
      <trkpt lat="45.94364" lon="4.52951">
        <ele>341</ele>
        <time>2022-06-12T10:10:46Z</time>
      </trkpt>
      <trkpt lat="45.94379" lon="4.52945">
        <ele>346</ele>
        <time>2022-06-12T10:11:07Z</time>
      </trkpt>
      <trkpt lat="45.94384" lon="4.52949">
        <ele>346</ele>
        <time>2022-06-12T10:11:14Z</time>
      </trkpt>
      <trkpt lat="45.94386" lon="4.52963">
        <ele>345</ele>
        <time>2022-06-12T10:11:28Z</time>
      </trkpt>
      <trkpt lat="45.94397" lon="4.52969">
        <ele>347</ele>
        <time>2022-06-12T10:11:43Z</time>
      </trkpt>
      <trkpt lat="45.94408" lon="4.5298">
        <ele>348</ele>
        <time>2022-06-12T10:12:01Z</time>
      </trkpt>
      <trkpt lat="45.94421" lon="4.52965">
        <ele>351</ele>
        <time>2022-06-12T10:12:23Z</time>
      </trkpt>
      <trkpt lat="45.94428" lon="4.52951">
        <ele>352</ele>
        <time>2022-06-12T10:12:39Z</time>
      </trkpt>
      <trkpt lat="45.94433" lon="4.52918">
        <ele>356</ele>
        <time>2022-06-12T10:13:11Z</time>
      </trkpt>
      <trkpt lat="45.94431" lon="4.52905">
        <ele>356</ele>
        <time>2022-06-12T10:13:23Z</time>
      </trkpt>
      <trkpt lat="45.94436" lon="4.52896">
        <ele>355</ele>
        <time>2022-06-12T10:13:34Z</time>
      </trkpt>
      <trkpt lat="45.94442" lon="4.5289">
        <ele>354</ele>
        <time>2022-06-12T10:13:43Z</time>
      </trkpt>
      <trkpt lat="45.94459" lon="4.52891">
        <ele>351</ele>
        <time>2022-06-12T10:14:06Z</time>
      </trkpt>
      <trkpt lat="45.94469" lon="4.52879">
        <ele>350</ele>
        <time>2022-06-12T10:14:24Z</time>
      </trkpt>
      <trkpt lat="45.94471" lon="4.52866">
        <ele>351</ele>
        <time>2022-06-12T10:14:36Z</time>
      </trkpt>
      <trkpt lat="45.94486" lon="4.5283">
        <ele>353</ele>
        <time>2022-06-12T10:15:15Z</time>
      </trkpt>
      <trkpt lat="45.94534" lon="4.52757">
        <ele>349</ele>
        <time>2022-06-12T10:16:48Z</time>
      </trkpt>
      <trkpt lat="45.94541" lon="4.52748">
        <ele>349</ele>
        <time>2022-06-12T10:17:01Z</time>
      </trkpt>
      <trkpt lat="45.9455" lon="4.52743">
        <ele>349</ele>
        <time>2022-06-12T10:17:14Z</time>
      </trkpt>
      <trkpt lat="45.94564" lon="4.52729">
        <ele>349</ele>
        <time>2022-06-12T10:17:36Z</time>
      </trkpt>
      <trkpt lat="45.94572" lon="4.52708">
        <ele>351</ele>
        <time>2022-06-12T10:17:58Z</time>
        <extensions>
          <visugpx:TrkExtension xmlns:visugpx="https://www.visugpx.com/editgpx/">
            <visugpx:node>1</visugpx:node>
            </visugpx:TrkExtension>
        </extensions>
      </trkpt>
      <trkpt lat="45.94579" lon="4.52685">
        <ele>357.4</ele>
      </trkpt>
      <trkpt lat="45.94585" lon="4.5266">
        <ele>358.1</ele>
      </trkpt>
      <trkpt lat="45.94589" lon="4.5264">
        <ele>358.3</ele>
      </trkpt>
      <trkpt lat="45.94596" lon="4.52615">
        <ele>358.3</ele>
      </trkpt>
      <trkpt lat="45.946" lon="4.52604">
        <ele>358.1</ele>
      </trkpt>
      <trkpt lat="45.9462" lon="4.52572">
        <ele>355.7</ele>
      </trkpt>
      <trkpt lat="45.94632" lon="4.52559">
        <ele>354.9</ele>
      </trkpt>
      <trkpt lat="45.9464" lon="4.52553">
        <ele>354.5</ele>
      </trkpt>
      <trkpt lat="45.94675" lon="4.52534">
        <ele>352.9</ele>
      </trkpt>
      <trkpt lat="45.9468" lon="4.5253">
        <ele>352.9</ele>
      </trkpt>
      <trkpt lat="45.94689" lon="4.52522">
        <ele>352.7</ele>
      </trkpt>
      <trkpt lat="45.94705" lon="4.52504">
        <ele>351.9</ele>
      </trkpt>
      <trkpt lat="45.94718" lon="4.52487">
        <ele>352.2</ele>
      </trkpt>
      <trkpt lat="45.94731" lon="4.52472">
        <ele>352.7</ele>
      </trkpt>
      <trkpt lat="45.94756" lon="4.52446">
        <ele>353.2</ele>
      </trkpt>
      <trkpt lat="45.94764" lon="4.5244">
        <ele>353.1</ele>
      </trkpt>
      <trkpt lat="45.94789" lon="4.52418">
        <ele>356.8</ele>
      </trkpt>
      <trkpt lat="45.9482" lon="4.52396">
        <ele>358.3</ele>
      </trkpt>
      <trkpt lat="45.9483" lon="4.52387">
        <ele>358.9</ele>
      </trkpt>
      <trkpt lat="45.94834" lon="4.52382">
        <ele>359.6</ele>
      </trkpt>
      <trkpt lat="45.94843" lon="4.52373">
        <ele>359.7</ele>
      </trkpt>
      <trkpt lat="45.94854" lon="4.52358">
        <ele>360.4</ele>
      </trkpt>
      <trkpt lat="45.94877" lon="4.52323">
        <ele>361.1</ele>
      </trkpt>
      <trkpt lat="45.94891" lon="4.52298">
        <ele>362.4</ele>
      </trkpt>
      <trkpt lat="45.94891" lon="4.52297">
        <ele>362.6</ele>
        <extensions>
          <visugpx:TrkExtension xmlns:visugpx="https://www.visugpx.com/editgpx/">
            <visugpx:node>2</visugpx:node>
            </visugpx:TrkExtension>
        </extensions>
      </trkpt>
      <trkpt lat="45.94905" lon="4.52276">
        <ele>362.3</ele>
      </trkpt>
      <trkpt lat="45.94919" lon="4.52251">
        <ele>364</ele>
      </trkpt>
      <trkpt lat="45.94923" lon="4.52239">
        <ele>364.5</ele>
      </trkpt>
      <trkpt lat="45.94928" lon="4.52222">
        <ele>366</ele>
      </trkpt>
      <trkpt lat="45.94939" lon="4.52181">
        <ele>367.5</ele>
      </trkpt>
      <trkpt lat="45.94953" lon="4.52141">
        <ele>368.5</ele>
      </trkpt>
      <trkpt lat="45.94946" lon="4.52146">
        <ele>368.6</ele>
      </trkpt>
      <trkpt lat="45.94936" lon="4.52159">
        <ele>368.4</ele>
        <extensions>
          <visugpx:TrkExtension xmlns:visugpx="https://www.visugpx.com/editgpx/">
            <visugpx:node>3</visugpx:node>
            </visugpx:TrkExtension>
        </extensions>
      </trkpt>
    </trkseg>
  </trk>
</gpx>